Terminal Aerodrome Forecast
Issued by NWS

Home | Current Version | Previous Version | Text Only | Print | Product List | Glossary On
Versions: 1 2 3 4 5 6 7 8 9 10 11 12 13
106
FTUS46 KSEW 070520
TAFCLM
TAF
KCLM 070520Z 0706/0806 VRB03KT P6SM SCT040 BKN100
     FM071300 VRB03KT P6SM -RA SCT018 OVC050
     FM072200 10003KT P6SM BKN050
     FM080200 VRB03KT P6SM SCT050 OVC100=

USA.gov is the U.S. government's official web portal to all federal, state and local government web resources and services.